sensor_id;sensor_type;location;lat;lon;timestamp;pressure;altitude;pressure_sealevel;temperature;humidity
62697;BME280;48761;42.680;23.312;2023-12-14T00:01:47;93824.66;;;6.65;85.86
62697;BME280;48761;42.680;23.312;2023-12-14T00:04:13;93810.69;;;6.76;85.26
62697;BME280;48761;42.680;23.312;2023-12-14T00:06:39;93831.09;;;6.74;85.29
62697;BME280;48761;42.680;23.312;2023-12-14T00:09:05;93763.69;;;6.18;86.95
62697;BME280;48761;42.680;23.312;2023-12-14T00:11:32;93828.63;;;6.20;88.51
62697;BME280;48761;42.680;23.312;2023-12-14T00:13:58;93814.25;;;6.37;87.71
62697;BME280;48761;42.680;23.312;2023-12-14T00:16:23;93818.06;;;6.07;88.48
62697;BME280;48761;42.680;23.312;2023-12-14T00:18:49;93834.00;;;6.32;88.40
62697;BME280;48761;42.680;23.312;2023-12-14T00:21:15;93840.09;;;6.58;87.30
62697;BME280;48761;42.680;23.312;2023-12-14T00:23:41;93817.19;;;6.46;87.06
62697;BME280;48761;42.680;23.312;2023-12-14T00:26:07;93836.50;;;6.59;87.03
62697;BME280;48761;42.680;23.312;2023-12-14T00:28:33;93838.66;;;6.41;87.06
62697;BME280;48761;42.680;23.312;2023-12-14T00:30:59;93819.19;;;6.55;86.97
62697;BME280;48761;42.680;23.312;2023-12-14T00:33:25;93821.13;;;6.27;87.69
62697;BME280;48761;42.680;23.312;2023-12-14T00:35:51;93839.16;;;6.59;86.85
62697;BME280;48761;42.680;23.312;2023-12-14T00:38:17;93837.56;;;6.70;86.40
62697;BME280;48761;42.680;23.312;2023-12-14T00:40:43;93818.56;;;6.52;87.04
62697;BME280;48761;42.680;23.312;2023-12-14T00:43:09;93813.69;;;6.58;86.32
62697;BME280;48761;42.680;23.312;2023-12-14T00:45:34;93842.66;;;6.47;87.36
62697;BME280;48761;42.680;23.312;2023-12-14T00:48:00;93825.19;;;6.57;86.67
62697;BME280;48761;42.680;23.312;2023-12-14T00:50:26;93810.66;;;6.52;86.81
62697;BME280;48761;42.680;23.312;2023-12-14T00:52:52;93833.72;;;6.74;86.39
62697;BME280;48761;42.680;23.312;2023-12-14T00:55:18;93815.75;;;6.15;88.10
62697;BME280;48761;42.680;23.312;2023-12-14T00:57:44;93808.72;;;6.54;87.17
62697;BME280;48761;42.680;23.312;2023-12-14T01:00:10;93838.63;;;6.54;87.40
62697;BME280;48761;42.680;23.312;2023-12-14T01:02:37;93835.88;;;6.43;87.43
62697;BME280;48761;42.680;23.312;2023-12-14T01:05:03;93830.50;;;6.44;87.16
62697;BME280;48761;42.680;23.312;2023-12-14T01:07:29;93819.63;;;6.36;87.52
62697;BME280;48761;42.680;23.312;2023-12-14T01:09:55;93830.84;;;6.39;87.88
62697;BME280;48761;42.680;23.312;2023-12-14T01:12:21;93824.66;;;6.65;86.52
62697;BME280;48761;42.680;23.312;2023-12-14T01:14:47;93815.41;;;6.33;87.17
62697;BME280;48761;42.680;23.312;2023-12-14T01:17:12;93802.94;;;6.35;87.19
62697;BME280;48761;42.680;23.312;2023-12-14T01:19:41;93852.25;;;6.48;87.33
62697;BME280;48761;42.680;23.312;2023-12-14T01:22:07;93787.34;;;6.06;87.72
62697;BME280;48761;42.680;23.312;2023-12-14T01:24:33;93824.69;;;6.52;87.03
62697;BME280;48761;42.680;23.312;2023-12-14T01:26:59;93826.81;;;6.47;86.99
62697;BME280;48761;42.680;23.312;2023-12-14T01:29:25;93806.25;;;6.26;87.54
62697;BME280;48761;42.680;23.312;2023-12-14T01:31:51;93797.47;;;6.12;88.05
62697;BME280;48761;42.680;23.312;2023-12-14T01:34:17;93806.25;;;6.26;88.14
62697;BME280;48761;42.680;23.312;2023-12-14T01:36:42;93820.50;;;6.36;87.50
62697;BME280;48761;42.680;23.312;2023-12-14T01:39:08;93812.84;;;6.45;87.15
62697;BME280;48761;42.680;23.312;2023-12-14T01:41:34;93838.44;;;6.44;87.01
62697;BME280;48761;42.680;23.312;2023-12-14T01:44:00;93816.88;;;6.37;86.66
62697;BME280;48761;42.680;23.312;2023-12-14T01:46:26;93813.09;;;6.42;87.08
62697;BME280;48761;42.680;23.312;2023-12-14T01:48:52;93794.00;;;6.25;87.09
62697;BME280;48761;42.680;23.312;2023-12-14T01:51:18;93813.72;;;6.32;87.76
62697;BME280;48761;42.680;23.312;2023-12-14T01:53:44;93823.41;;;6.45;87.05
62697;BME280;48761;42.680;23.312;2023-12-14T01:56:10;93781.84;;;5.96;88.52
62697;BME280;48761;42.680;23.312;2023-12-14T01:58:36;93812.13;;;6.30;87.92
62697;BME280;48761;42.680;23.312;2023-12-14T02:03:44;93808.22;;;5.83;89.17
62697;BME280;48761;42.680;23.312;2023-12-14T02:06:10;93817.22;;;6.20;87.90
62697;BME280;48761;42.680;23.312;2023-12-14T02:08:36;93773.41;;;6.04;88.42
62697;BME280;48761;42.680;23.312;2023-12-14T02:11:02;93811.66;;;6.11;88.68
62697;BME280;48761;42.680;23.312;2023-12-14T02:13:27;93772.97;;;5.84;89.35
62697;BME280;48761;42.680;23.312;2023-12-14T02:15:53;93800.66;;;5.91;89.87
62697;BME280;48761;42.680;23.312;2023-12-14T02:18:19;93783.97;;;6.04;88.34
62697;BME280;48761;42.680;23.312;2023-12-14T02:20:45;93780.38;;;6.31;88.04
62697;BME280;48761;42.680;23.312;2023-12-14T02:23:11;93776.88;;;6.04;88.87
62697;BME280;48761;42.680;23.312;2023-12-14T02:25:37;93776.91;;;5.91;90.13
62697;BME280;48761;42.680;23.312;2023-12-14T02:28:03;93795.81;;;6.24;88.23
62697;BME280;48761;42.680;23.312;2023-12-14T02:30:29;93764.75;;;6.02;89.28
62697;BME280;48761;42.680;23.312;2023-12-14T02:32:55;93792.94;;;6.14;88.62
62697;BME280;48761;42.680;23.312;2023-12-14T02:35:21;93779.63;;;6.03;89.05
62697;BME280;48761;42.680;23.312;2023-12-14T02:37:47;93766.44;;;5.77;90.17
62697;BME280;48761;42.680;23.312;2023-12-14T02:40:13;93773.31;;;5.92;89.60
62697;BME280;48761;42.680;23.312;2023-12-14T02:42:38;93775.94;;;6.05;88.98
62697;BME280;48761;42.680;23.312;2023-12-14T02:45:07;93777.44;;;5.83;89.42
62697;BME280;48761;42.680;23.312;2023-12-14T02:47:33;93793.25;;;6.10;89.44
62697;BME280;48761;42.680;23.312;2023-12-14T02:49:59;93778.69;;;6.04;89.16
62697;BME280;48761;42.680;23.312;2023-12-14T02:52:24;93812.78;;;6.07;89.12
62697;BME280;48761;42.680;23.312;2023-12-14T02:54:50;93789.03;;;6.20;88.61
62697;BME280;48761;42.680;23.312;2023-12-14T02:57:16;93779.75;;;6.14;88.57
62697;BME280;48761;42.680;23.312;2023-12-14T02:59:42;93815.88;;;6.14;88.86
62697;BME280;48761;42.680;23.312;2023-12-14T03:02:08;93791.16;;;6.15;88.47
62697;BME280;48761;42.680;23.312;2023-12-14T03:04:34;93801.47;;;6.05;88.95
62697;BME280;48761;42.680;23.312;2023-12-14T03:07:03;93805.91;;;6.31;88.65
62697;BME280;48761;42.680;23.312;2023-12-14T03:09:28;93790.09;;;6.31;88.04
62697;BME280;48761;42.680;23.312;2023-12-14T03:11:55;93783.56;;;6.10;88.38
62697;BME280;48761;42.680;23.312;2023-12-14T03:14:21;93788.28;;;6.05;89.17
62697;BME280;48761;42.680;23.312;2023-12-14T03:16:47;93776.47;;;6.24;88.60
62697;BME280;48761;42.680;23.312;2023-12-14T03:19:12;93783.94;;;6.30;88.01
62697;BME280;48761;42.680;23.312;2023-12-14T03:21:38;93767.19;;;6.31;88.31
62697;BME280;48761;42.680;23.312;2023-12-14T03:24:04;93775.63;;;6.36;88.32
62697;BME280;48761;42.680;23.312;2023-12-14T03:26:30;93773.78;;;6.50;87.58
62697;BME280;48761;42.680;23.312;2023-12-14T03:28:56;93761.16;;;6.29;87.55
62697;BME280;48761;42.680;23.312;2023-12-14T03:31:22;93770.53;;;6.33;88.41
62697;BME280;48761;42.680;23.312;2023-12-14T03:33:48;93761.22;;;6.41;87.77
62697;BME280;48761;42.680;23.312;2023-12-14T03:36:14;93751.84;;;6.36;87.82
62697;BME280;48761;42.680;23.312;2023-12-14T03:38:40;93747.91;;;6.42;87.43
62697;BME280;48761;42.680;23.312;2023-12-14T03:41:05;93747.63;;;6.47;87.34
62697;BME280;48761;42.680;23.312;2023-12-14T03:43:31;93742.59;;;6.18;87.76
62697;BME280;48761;42.680;23.312;2023-12-14T03:45:57;93731.09;;;6.19;88.02
62697;BME280;48761;42.680;23.312;2023-12-14T03:48:23;93706.50;;;6.05;88.00
62697;BME280;48761;42.680;23.312;2023-12-14T03:50:49;93741.53;;;6.07;89.35
62697;BME280;48761;42.680;23.312;2023-12-14T03:53:15;93734.78;;;6.29;88.83
62697;BME280;48761;42.680;23.312;2023-12-14T03:55:41;93729.84;;;6.49;87.25
62697;BME280;48761;42.680;23.312;2023-12-14T03:58:07;93734.00;;;6.27;88.02
62697;BME280;48761;42.680;23.312;2023-12-14T04:00:33;93710.31;;;6.14;88.01
62697;BME280;48761;42.680;23.312;2023-12-14T04:02:58;93740.25;;;6.26;88.24
62697;BME280;48761;42.680;23.312;2023-12-14T04:05:24;93744.03;;;6.35;88.07
62697;BME280;48761;42.680;23.312;2023-12-14T04:07:50;93737.31;;;6.18;88.40
62697;BME280;48761;42.680;23.312;2023-12-14T04:10:16;93738.38;;;6.15;88.78
62697;BME280;48761;42.680;23.312;2023-12-14T04:12:42;93741.34;;;6.10;89.03
62697;BME280;48761;42.680;23.312;2023-12-14T04:15:09;93750.16;;;6.35;87.64
62697;BME280;48761;42.680;23.312;2023-12-14T04:17:35;93756.97;;;6.13;88.81
62697;BME280;48761;42.680;23.312;2023-12-14T04:20:02;93755.13;;;6.27;88.03
62697;BME280;48761;42.680;23.312;2023-12-14T04:22:28;93767.59;;;6.25;88.24
62697;BME280;48761;42.680;23.312;2023-12-14T04:24:54;93755.56;;;6.21;88.14
62697;BME280;48761;42.680;23.312;2023-12-14T04:27:20;93765.63;;;6.15;88.53
62697;BME280;48761;42.680;23.312;2023-12-14T04:29:46;93757.75;;;6.27;88.42
62697;BME280;48761;42.680;23.312;2023-12-14T04:32:12;93747.72;;;6.32;88.08
62697;BME280;48761;42.680;23.312;2023-12-14T04:34:38;93750.16;;;6.35;87.43
62697;BME280;48761;42.680;23.312;2023-12-14T04:37:04;93755.84;;;6.42;87.15
62697;BME280;48761;42.680;23.312;2023-12-14T04:39:30;93736.91;;;6.24;87.52
62697;BME280;48761;42.680;23.312;2023-12-14T04:41:56;93751.91;;;6.10;87.63
62697;BME280;48761;42.680;23.312;2023-12-14T04:44:22;93769.81;;;6.05;88.65
62697;BME280;48761;42.680;23.312;2023-12-14T04:46:48;93742.63;;;5.91;89.30
62697;BME280;48761;42.680;23.312;2023-12-14T04:49:14;93759.81;;;6.10;89.07
62697;BME280;48761;42.680;23.312;2023-12-14T04:51:40;93734.50;;;5.68;90.99
62697;BME280;48761;42.680;23.312;2023-12-14T04:54:06;93771.50;;;5.93;90.59
62697;BME280;48761;42.680;23.312;2023-12-14T04:56:32;93754.09;;;5.90;89.97
62697;BME280;48761;42.680;23.312;2023-12-14T04:58:58;93776.78;;;5.93;90.38
62697;BME280;48761;42.680;23.312;2023-12-14T05:01:24;93758.22;;;5.68;91.75
62697;BME280;48761;42.680;23.312;2023-12-14T05:03:50;93764.53;;;6.05;90.42
62697;BME280;48761;42.680;23.312;2023-12-14T05:06:16;93756.84;;;5.76;90.96
62697;BME280;48761;42.680;23.312;2023-12-14T05:08:41;93745.34;;;5.77;90.90
62697;BME280;48761;42.680;23.312;2023-12-14T05:11:07;93768.34;;;6.01;91.04
62697;BME280;48761;42.680;23.312;2023-12-14T05:13:33;93752.72;;;5.45;92.38
62697;BME280;48761;42.680;23.312;2023-12-14T05:16:00;93760.84;;;5.81;91.58
62697;BME280;48761;42.680;23.312;2023-12-14T05:18:26;93734.78;;;5.77;90.71
62697;BME280;48761;42.680;23.312;2023-12-14T05:20:52;93753.78;;;5.82;90.68
62697;BME280;48761;42.680;23.312;2023-12-14T05:23:18;93746.19;;;5.64;92.01
62697;BME280;48761;42.680;23.312;2023-12-14T05:25:44;93778.16;;;5.99;91.68
62697;BME280;48761;42.680;23.312;2023-12-14T05:28:10;93768.25;;;5.63;92.27
62697;BME280;48761;42.680;23.312;2023-12-14T05:30:36;93771.91;;;6.00;92.12
62697;BME280;48761;42.680;23.312;2023-12-14T05:33:02;93762.66;;;5.81;91.75
62697;BME280;48761;42.680;23.312;2023-12-14T05:35:28;93770.66;;;6.05;90.64
62697;BME280;48761;42.680;23.312;2023-12-14T05:37:54;93781.94;;;5.94;90.90
62697;BME280;48761;42.680;23.312;2023-12-14T05:40:20;93778.69;;;6.04;90.40
62697;BME280;48761;42.680;23.312;2023-12-14T05:42:46;93764.78;;;5.89;91.08
62697;BME280;48761;42.680;23.312;2023-12-14T05:45:12;93790.09;;;5.91;91.28
62697;BME280;48761;42.680;23.312;2023-12-14T05:47:38;93774.69;;;5.85;91.40
62697;BME280;48761;42.680;23.312;2023-12-14T05:50:04;93770.56;;;5.81;92.00
62697;BME280;48761;42.680;23.312;2023-12-14T05:52:30;93773.31;;;5.92;91.46
62697;BME280;48761;42.680;23.312;2023-12-14T05:54:56;93801.91;;;5.99;91.53
62697;BME280;48761;42.680;23.312;2023-12-14T05:57:22;93780.28;;;5.93;91.51
62697;BME280;48761;42.680;23.312;2023-12-14T05:59:50;93780.34;;;6.05;92.16
62697;BME280;48761;42.680;23.312;2023-12-14T06:02:16;93779.53;;;5.91;91.78
62697;BME280;48761;42.680;23.312;2023-12-14T06:04:42;93782.72;;;6.10;91.25
62697;BME280;48761;42.680;23.312;2023-12-14T06:07:08;93794.97;;;6.24;90.60
62697;BME280;48761;42.680;23.312;2023-12-14T06:09:34;93764.88;;;6.13;90.31
62697;BME280;48761;42.680;23.312;2023-12-14T06:12:01;93775.53;;;5.99;92.00
62697;BME280;48761;42.680;23.312;2023-12-14T06:14:27;93797.47;;;6.25;91.26
62697;BME280;48761;42.680;23.312;2023-12-14T06:16:53;93796.00;;;6.34;91.57
62697;BME280;48761;42.680;23.312;2023-12-14T06:19:19;93780.78;;;6.25;90.63
62697;BME280;48761;42.680;23.312;2023-12-14T06:21:44;93797.28;;;6.15;90.05
62697;BME280;48761;42.680;23.312;2023-12-14T06:24:10;93815.63;;;6.30;89.63
62697;BME280;48761;42.680;23.312;2023-12-14T06:26:43;93811.72;;;6.23;89.84
62697;BME280;48761;42.680;23.312;2023-12-14T06:29:09;93817.13;;;6.34;90.13
62697;BME280;48761;42.680;23.312;2023-12-14T06:31:36;93815.41;;;6.46;89.67
62697;BME280;48761;42.680;23.312;2023-12-14T06:34:02;93812.06;;;6.31;89.25
62697;BME280;48761;42.680;23.312;2023-12-14T06:36:28;93822.16;;;6.50;89.61
62697;BME280;48761;42.680;23.312;2023-12-14T06:38:54;93828.06;;;6.54;89.00
62697;BME280;48761;42.680;23.312;2023-12-14T06:41:24;93822.16;;;6.37;89.69
62697;BME280;48761;42.680;23.312;2023-12-14T06:43:50;93828.06;;;6.54;89.09
62697;BME280;48761;42.680;23.312;2023-12-14T06:46:16;93830.25;;;6.60;88.13
62697;BME280;48761;42.680;23.312;2023-12-14T06:48:42;93824.56;;;6.54;88.93
62697;BME280;48761;42.680;23.312;2023-12-14T06:51:08;93843.25;;;6.64;88.92
62697;BME280;48761;42.680;23.312;2023-12-14T06:53:34;93835.19;;;6.78;87.80
62697;BME280;48761;42.680;23.312;2023-12-14T06:56:00;93841.78;;;6.59;87.92
62697;BME280;48761;42.680;23.312;2023-12-14T06:58:26;93831.19;;;6.72;87.93
62697;BME280;48761;42.680;23.312;2023-12-14T07:00:52;93827.56;;;6.87;87.72
62697;BME280;48761;42.680;23.312;2023-12-14T07:03:18;93837.94;;;6.77;88.15
62697;BME280;48761;42.680;23.312;2023-12-14T07:05:44;93813.31;;;6.76;87.94
62697;BME280;48761;42.680;23.312;2023-12-14T07:08:10;93826.03;;;6.95;86.39
62697;BME280;48761;42.680;23.312;2023-12-14T07:10:36;93846.84;;;7.00;86.62
62697;BME280;48761;42.680;23.312;2023-12-14T07:13:02;93852.22;;;7.12;87.39
62697;BME280;48761;42.680;23.312;2023-12-14T07:15:27;93841.19;;;7.18;85.93
62697;BME280;48761;42.680;23.312;2023-12-14T07:17:53;93852.00;;;7.15;86.17
62697;BME280;48761;42.680;23.312;2023-12-14T07:20:19;93825.78;;;7.12;85.00
62697;BME280;48761;42.680;23.312;2023-12-14T07:22:45;93846.72;;;7.15;86.55
62697;BME280;48761;42.680;23.312;2023-12-14T07:25:11;93835.03;;;6.93;86.36
62697;BME280;48761;42.680;23.312;2023-12-14T07:27:37;93856.81;;;7.21;86.55
62697;BME280;48761;42.680;23.312;2023-12-14T07:30:06;93860.28;;;7.35;85.30
62697;BME280;48761;42.680;23.312;2023-12-14T07:32:32;93853.22;;;7.22;85.55
62697;BME280;48761;42.680;23.312;2023-12-14T07:34:58;93875.31;;;7.46;85.85
62697;BME280;48761;42.680;23.312;2023-12-14T07:37:25;93845.41;;;7.21;86.54
62697;BME280;48761;42.680;23.312;2023-12-14T07:39:52;93834.44;;;7.14;84.26
62697;BME280;48761;42.680;23.312;2023-12-14T07:42:18;93873.44;;;7.48;85.36
62697;BME280;48761;42.680;23.312;2023-12-14T07:44:44;93883.94;;;7.61;85.55
62697;BME280;48761;42.680;23.312;2023-12-14T07:47:10;93882.53;;;7.68;84.75
62697;BME280;48761;42.680;23.312;2023-12-14T07:49:39;93860.09;;;7.49;85.41
62697;BME280;48761;42.680;23.312;2023-12-14T07:52:05;93878.72;;;7.84;83.74
62697;BME280;48761;42.680;23.312;2023-12-14T07:54:40;93872.50;;;7.85;82.74
62697;BME280;48761;42.680;23.312;2023-12-14T07:57:06;93852.53;;;7.81;82.55
62697;BME280;48761;42.680;23.312;2023-12-14T07:59:32;93858.97;;;7.77;81.98
62697;BME280;48761;42.680;23.312;2023-12-14T08:01:58;93868.25;;;7.71;83.03
62697;BME280;48761;42.680;23.312;2023-12-14T08:04:24;93894.00;;;8.16;82.44
62697;BME280;48761;42.680;23.312;2023-12-14T08:06:50;93877.44;;;8.49;81.31
62697;BME280;48761;42.680;23.312;2023-12-14T08:09:15;93880.81;;;8.51;80.27
62697;BME280;48761;42.680;23.312;2023-12-14T08:11:41;93878.22;;;8.74;80.12
62697;BME280;48761;42.680;23.312;2023-12-14T08:14:07;93871.88;;;8.52;80.53
62697;BME280;48761;42.680;23.312;2023-12-14T08:16:33;93862.53;;;8.71;79.13
62697;BME280;48761;42.680;23.312;2023-12-14T08:18:59;93871.44;;;8.81;78.79
62697;BME280;48761;42.680;23.312;2023-12-14T08:21:25;93891.44;;;8.62;80.13
62697;BME280;48761;42.680;23.312;2023-12-14T08:23:51;93881.56;;;8.65;80.33
62697;BME280;48761;42.680;23.312;2023-12-14T08:26:17;93871.22;;;8.73;78.19
62697;BME280;48761;42.680;23.312;2023-12-14T08:28:43;93901.56;;;8.69;79.40
62697;BME280;48761;42.680;23.312;2023-12-14T08:31:09;93880.00;;;8.96;78.30
62697;BME280;48761;42.680;23.312;2023-12-14T08:33:35;93881.44;;;8.78;78.53
62697;BME280;48761;42.680;23.312;2023-12-14T08:36:01;93898.91;;;8.69;79.04
62697;BME280;48761;42.680;23.312;2023-12-14T08:38:27;93897.94;;;8.70;80.14
62697;BME280;48761;42.680;23.312;2023-12-14T08:40:52;93866.50;;;8.88;78.56
62697;BME280;48761;42.680;23.312;2023-12-14T08:43:18;93890.94;;;8.80;78.94
62697;BME280;48761;42.680;23.312;2023-12-14T08:45:44;93898.66;;;8.95;79.17
62697;BME280;48761;42.680;23.312;2023-12-14T08:48:10;93901.06;;;9.10;79.30
62697;BME280;48761;42.680;23.312;2023-12-14T08:50:36;93866.00;;;9.06;77.49
62697;BME280;48761;42.680;23.312;2023-12-14T08:53:02;93909.00;;;9.21;77.48
62697;BME280;48761;42.680;23.312;2023-12-14T08:55:28;93890.16;;;9.36;76.62
62697;BME280;48761;42.680;23.312;2023-12-14T08:57:54;93883.91;;;9.25;76.83
62697;BME280;48761;42.680;23.312;2023-12-14T09:00:20;93887.50;;;9.47;76.13
62697;BME280;48761;42.680;23.312;2023-12-14T09:02:46;93893.06;;;9.44;76.78
62697;BME280;48761;42.680;23.312;2023-12-14T09:05:12;93857.34;;;9.48;75.10
62697;BME280;48761;42.680;23.312;2023-12-14T09:07:38;93894.25;;;9.84;74.35
62697;BME280;48761;42.680;23.312;2023-12-14T09:10:05;93900.22;;;9.65;74.40
62697;BME280;48761;42.680;23.312;2023-12-14T09:12:31;93881.34;;;9.80;73.81
62697;BME280;48761;42.680;23.312;2023-12-14T09:14:57;93868.25;;;9.67;73.77
62697;BME280;48761;42.680;23.312;2023-12-14T09:17:23;93876.81;;;9.70;73.97
62697;BME280;48761;42.680;23.312;2023-12-14T09:19:52;93890.56;;;9.75;74.39
62697;BME280;48761;42.680;23.312;2023-12-14T09:22:18;93886.03;;;9.88;74.16
62697;BME280;48761;42.680;23.312;2023-12-14T09:24:43;93880.13;;;9.84;74.02
62697;BME280;48761;42.680;23.312;2023-12-14T09:27:09;93866.59;;;9.87;73.17
62697;BME280;48761;42.680;23.312;2023-12-14T09:29:35;93885.50;;;9.72;74.24
62697;BME280;48761;42.680;23.312;2023-12-14T09:32:01;93884.50;;;9.73;74.43
62697;BME280;48761;42.680;23.312;2023-12-14T09:34:27;93880.72;;;9.55;74.91
62697;BME280;48761;42.680;23.312;2023-12-14T09:36:53;93895.63;;;9.67;74.57
62697;BME280;48761;42.680;23.312;2023-12-14T09:39:19;93899.41;;;9.86;73.62
62697;BME280;48761;42.680;23.312;2023-12-14T09:41:45;93887.47;;;9.59;74.76
62697;BME280;48761;42.680;23.312;2023-12-14T09:44:11;93901.56;;;9.92;74.03
62697;BME280;48761;42.680;23.312;2023-12-14T09:46:38;93893.31;;;10.07;73.63
62697;BME280;48761;42.680;23.312;2023-12-14T09:49:04;93905.25;;;10.01;74.32
62697;BME280;48761;42.680;23.312;2023-12-14T09:51:31;93914.53;;;10.07;73.88
62697;BME280;48761;42.680;23.312;2023-12-14T09:53:57;93915.47;;;10.17;73.49
62697;BME280;48761;42.680;23.312;2023-12-14T09:56:26;93913.97;;;10.25;72.79
62697;BME280;48761;42.680;23.312;2023-12-14T09:58:53;93903.56;;;10.33;72.21
62697;BME280;48761;42.680;23.312;2023-12-14T10:01:23;93918.31;;;10.26;72.46
62697;BME280;48761;42.680;23.312;2023-12-14T10:03:49;93901.22;;;10.18;72.38
62697;BME280;48761;42.680;23.312;2023-12-14T10:06:17;93917.66;;;10.12;73.28
62697;BME280;48761;42.680;23.312;2023-12-14T10:08:53;93899.72;;;10.47;72.10
62697;BME280;48761;42.680;23.312;2023-12-14T10:11:19;93895.78;;;10.41;71.91
62697;BME280;48761;42.680;23.312;2023-12-14T10:13:45;93904.84;;;10.17;73.01
62697;BME280;48761;42.680;23.312;2023-12-14T10:16:11;93907.75;;;10.14;73.12
62697;BME280;48761;42.680;23.312;2023-12-14T10:18:37;93902.56;;;10.13;73.16
62697;BME280;48761;42.680;23.312;2023-12-14T10:21:06;93921.78;;;10.05;74.06
62697;BME280;48761;42.680;23.312;2023-12-14T10:23:33;93890.16;;;10.56;72.10
62697;BME280;48761;42.680;23.312;2023-12-14T10:25:59;93906.00;;;10.25;73.24
62697;BME280;48761;42.680;23.312;2023-12-14T10:28:25;93899.53;;;10.17;73.67
62697;BME280;48761;42.680;23.312;2023-12-14T10:30:52;93886.44;;;10.26;73.09
62697;BME280;48761;42.680;23.312;2023-12-14T10:33:20;93888.00;;;10.07;74.15
62697;BME280;48761;42.680;23.312;2023-12-14T10:35:46;93914.69;;;10.27;76.32
62697;BME280;48761;42.680;23.312;2023-12-14T10:38:15;93928.41;;;10.32;77.91
62697;BME280;48761;42.680;23.312;2023-12-14T10:40:44;93925.84;;;10.20;78.82
62697;BME280;48761;42.680;23.312;2023-12-14T10:43:13;93902.91;;;9.86;80.20
62697;BME280;48761;42.680;23.312;2023-12-14T10:45:43;93887.38;;;9.82;80.90
62697;BME280;48761;42.680;23.312;2023-12-14T10:48:20;93901.53;;;9.71;82.47
62697;BME280;48761;42.680;23.312;2023-12-14T10:50:51;93948.09;;;10.08;83.37
62697;BME280;48761;42.680;23.312;2023-12-14T10:53:19;93954.44;;;9.95;84.53
62697;BME280;48761;42.680;23.312;2023-12-14T10:55:47;93961.88;;;10.02;85.37
62697;BME280;48761;42.680;23.312;2023-12-14T10:58:13;93933.69;;;9.89;85.63
62697;BME280;48761;42.680;23.312;2023-12-14T11:00:39;93964.97;;;9.85;86.83
62697;BME280;48761;42.680;23.312;2023-12-14T11:03:05;93971.19;;;9.96;87.02
62697;BME280;48761;42.680;23.312;2023-12-14T11:05:33;93942.69;;;9.65;87.35
62697;BME280;48761;42.680;23.312;2023-12-14T11:08:01;93959.25;;;9.90;87.08
62697;BME280;48761;42.680;23.312;2023-12-14T11:10:37;93987.75;;;9.77;86.88
62697;BME280;48761;42.680;23.312;2023-12-14T11:13:06;93978.34;;;9.84;86.11
62697;BME280;48761;42.680;23.312;2023-12-14T11:15:34;93997.81;;;9.73;86.50
62697;BME280;48761;42.680;23.312;2023-12-14T11:20:56;94005.41;;;9.55;85.06
62697;BME280;48761;42.680;23.312;2023-12-14T11:23:27;94008.19;;;9.53;84.45
62697;BME280;48761;42.680;23.312;2023-12-14T11:26:01;94007.59;;;9.49;83.29
62697;BME280;48761;42.680;23.312;2023-12-14T11:28:27;93987.13;;;9.17;83.44
62697;BME280;48761;42.680;23.312;2023-12-14T11:30:54;94020.03;;;9.37;83.35
62697;BME280;48761;42.680;23.312;2023-12-14T11:33:20;94019.31;;;9.35;83.13
62697;BME280;48761;42.680;23.312;2023-12-14T11:35:47;94021.00;;;9.25;82.93
62697;BME280;48761;42.680;23.312;2023-12-14T11:38:23;94023.75;;;9.35;81.96
62697;BME280;48761;42.680;23.312;2023-12-14T11:43:16;94033.63;;;9.10;82.01
62697;BME280;48761;42.680;23.312;2023-12-14T11:45:57;94034.13;;;9.15;81.74
62697;BME280;48761;42.680;23.312;2023-12-14T11:48:25;94024.69;;;9.11;81.00
62697;BME280;48761;42.680;23.312;2023-12-14T11:50:54;94020.56;;;8.83;81.33
62697;BME280;48761;42.680;23.312;2023-12-14T11:53:22;94040.13;;;8.94;81.11
62697;BME280;48761;42.680;23.312;2023-12-14T11:55:49;94043.03;;;9.02;81.25
62697;BME280;48761;42.680;23.312;2023-12-14T11:58:15;94060.84;;;9.00;81.33
62697;BME280;48761;42.680;23.312;2023-12-14T12:00:44;94064.25;;;9.02;81.43
62697;BME280;48761;42.680;23.312;2023-12-14T12:03:17;94063.47;;;8.89;81.03
62697;BME280;48761;42.680;23.312;2023-12-14T12:05:48;94057.47;;;8.98;80.53
62697;BME280;48761;42.680;23.312;2023-12-14T12:08:17;94059.22;;;8.74;80.88
62697;BME280;48761;42.680;23.312;2023-12-14T12:10:44;94054.81;;;8.98;80.49
62697;BME280;48761;42.680;23.312;2023-12-14T12:13:19;94088.53;;;8.84;80.85
62697;BME280;48761;42.680;23.312;2023-12-14T12:15:46;94084.41;;;8.80;81.22
62697;BME280;48761;42.680;23.312;2023-12-14T12:18:14;94078.66;;;8.87;80.68
62697;BME280;48761;42.680;23.312;2023-12-14T12:20:40;94077.66;;;8.88;80.45
62697;BME280;48761;42.680;23.312;2023-12-14T12:23:06;94083.81;;;8.88;80.62
62697;BME280;48761;42.680;23.312;2023-12-14T12:25:33;94039.06;;;8.60;80.19
62697;BME280;48761;42.680;23.312;2023-12-14T12:28:01;94024.97;;;8.35;80.91
62697;BME280;48761;42.680;23.312;2023-12-14T12:30:27;94038.72;;;8.40;81.00
62697;BME280;48761;42.680;23.312;2023-12-14T12:33:12;94095.94;;;8.68;80.95
62697;BME280;48761;42.680;23.312;2023-12-14T12:35:37;94063.41;;;8.41;81.61
62697;BME280;48761;42.680;23.312;2023-12-14T12:38:03;94061.78;;;8.51;81.21
62697;BME280;48761;42.680;23.312;2023-12-14T12:40:29;94098.56;;;8.68;81.45
62697;BME280;48761;42.680;23.312;2023-12-14T12:42:55;94093.78;;;8.73;81.69
62697;BME280;48761;42.680;23.312;2023-12-14T12:45:21;94081.00;;;8.67;81.58
62697;BME280;48761;42.680;23.312;2023-12-14T12:47:47;94100.28;;;8.69;81.54
62697;BME280;48761;42.680;23.312;2023-12-14T12:50:13;94096.41;;;8.61;82.19
62697;BME280;48761;42.680;23.312;2023-12-14T12:52:39;94065.34;;;8.63;81.82
62697;BME280;48761;42.680;23.312;2023-12-14T12:55:06;94093.56;;;8.51;82.42
62697;BME280;48761;42.680;23.312;2023-12-14T12:57:32;94066.16;;;8.39;82.57
62697;BME280;48761;42.680;23.312;2023-12-14T12:59:58;94076.81;;;8.51;82.50
62697;BME280;48761;42.680;23.312;2023-12-14T13:02:24;94086.13;;;8.57;82.56
62697;BME280;48761;42.680;23.312;2023-12-14T13:04:49;94089.47;;;8.34;82.85